createdAt,value
2017-09-07T06:20:17.257Z,69.41
2017-09-07T06:22:45.147Z,68.83
2017-09-07T06:25:12.995Z,46.43
2017-09-07T06:34:53.461Z,66.80
2017-09-07T06:37:55.588Z,66.84
2017-09-07T06:40:23.966Z,67.03
2017-09-07T06:42:52.259Z,66.22
2017-09-07T06:45:20.631Z,66.49
2017-09-07T06:47:48.914Z,67.01
2017-09-07T06:50:17.202Z,67.49
2017-09-07T06:52:45.581Z,67.27
2017-09-07T06:55:13.857Z,67.32
2017-09-07T06:57:42.568Z,67.16
2017-09-07T07:00:10.925Z,67.19
2017-09-07T07:02:39.201Z,66.99
2017-09-07T07:05:07.488Z,67.21
2017-09-07T07:07:35.900Z,67.19
2017-09-07T07:10:04.190Z,67.20
2017-09-07T07:12:32.546Z,67.00
2017-09-07T07:15:00.867Z,67.01
2017-09-07T07:17:29.150Z,66.98
2017-09-07T07:19:57.585Z,67.02
2017-09-07T07:22:25.876Z,67.09
2017-09-07T07:24:54.227Z,67.01
2017-09-07T07:27:22.651Z,66.48
2017-09-07T07:29:51.023Z,66.59
2017-09-07T07:32:19.320Z,66.77
2017-09-07T07:34:48.637Z,66.50
2017-09-07T07:37:18.006Z,66.78
2017-09-07T07:39:46.324Z,66.49
2017-09-07T07:42:14.899Z,66.51
2017-09-07T07:44:43.353Z,66.23
2017-09-07T07:47:11.657Z,66.28
2017-09-07T07:49:40.325Z,65.84
2017-09-07T07:52:08.723Z,65.56
2017-09-07T07:54:37.202Z,65.17
2017-09-07T07:57:05.488Z,65.24
2017-09-07T07:59:33.882Z,65.10
2017-09-07T08:02:02.166Z,65.23
2017-09-07T08:04:30.447Z,65.17
2017-09-07T08:06:58.814Z,65.04
2017-09-07T08:09:27.194Z,64.87
2017-09-07T08:11:55.481Z,64.82
2017-09-07T08:14:23.762Z,64.87
2017-09-07T08:16:52.139Z,64.77
2017-09-07T08:19:20.425Z,64.65
2017-09-07T08:21:49.005Z,64.76
2017-09-07T08:24:17.486Z,64.72
2017-09-07T08:26:45.876Z,64.72
2017-09-07T08:29:14.152Z,64.65
2017-09-07T08:31:42.658Z,64.55
2017-09-07T08:34:11.018Z,64.52
2017-09-07T08:36:39.467Z,64.39
2017-09-07T08:39:08.631Z,64.33
2017-09-07T08:41:36.995Z,64.18
2017-09-07T08:44:05.590Z,64.10
2017-09-07T08:46:34.271Z,64.02
2017-09-07T08:49:02.551Z,63.88
2017-09-07T08:51:30.846Z,63.83
2017-09-07T08:53:59.219Z,63.74
2017-09-07T08:56:27.808Z,63.65
2017-09-07T08:58:56.248Z,63.58
2017-09-07T09:01:25.404Z,63.45
2017-09-07T09:03:53.879Z,63.34
2017-09-07T09:06:22.350Z,63.29
2017-09-07T09:08:50.746Z,63.23
2017-09-07T09:11:19.235Z,63.07
2017-09-07T09:13:47.634Z,62.89
2017-09-07T09:16:16.090Z,62.98
2017-09-07T09:18:44.375Z,63.26
2017-09-07T09:21:12.659Z,63.53
2017-09-07T09:23:41.060Z,63.83
2017-09-07T09:26:09.544Z,63.81
2017-09-07T09:28:38.114Z,63.84
2017-09-07T09:31:06.605Z,63.86
2017-09-07T09:33:34.887Z,63.79
2017-09-07T09:36:03.241Z,63.77
2017-09-07T09:38:31.747Z,63.63
2017-09-07T09:41:00.235Z,63.44
2017-09-07T09:43:28.722Z,63.29
2017-09-07T09:45:57.144Z,63.19
2017-09-07T09:48:25.694Z,63.09
2017-09-07T09:50:54.378Z,63.02
2017-09-07T09:53:22.975Z,63.00
2017-09-07T09:55:51.458Z,62.92
2017-09-07T09:58:19.941Z,62.80
2017-09-07T10:00:48.306Z,62.76
2017-09-07T10:03:16.622Z,62.72
2017-09-07T10:05:45.094Z,62.72
2017-09-07T10:08:13.678Z,62.67
2017-09-07T10:10:42.162Z,62.81
2017-09-07T10:13:10.443Z,62.73
2017-09-07T10:15:38.719Z,62.87
2017-09-07T10:18:07.005Z,62.98
2017-09-07T10:20:35.395Z,62.96
2017-09-07T10:23:03.875Z,62.97
2017-09-07T10:25:32.360Z,62.90
2017-09-07T10:28:00.739Z,62.79
2017-09-07T10:30:29.126Z,62.62
2017-09-07T10:32:57.727Z,62.50
2017-09-07T10:35:26.105Z,62.36
2017-09-07T10:37:54.583Z,62.19
2017-09-07T10:40:22.975Z,62.13
2017-09-07T10:42:51.247Z,62.09
2017-09-07T10:45:19.634Z,62.12
2017-09-07T10:47:48.124Z,62.03
2017-09-07T10:50:16.403Z,61.86
2017-09-07T10:52:44.675Z,61.87
2017-09-07T10:55:12.956Z,61.65
2017-09-07T10:57:41.442Z,61.36
2017-09-07T11:00:09.926Z,60.85
2017-09-07T11:02:38.218Z,60.19
2017-09-07T11:05:06.495Z,59.50
2017-09-07T11:07:34.965Z,59.26
2017-09-07T11:10:03.457Z,59.11
2017-09-07T11:12:31.839Z,59.24
2017-09-07T11:15:00.128Z,59.22
2017-09-07T11:17:28.508Z,59.08
2017-09-07T11:19:56.782Z,59.32
2017-09-07T11:22:25.189Z,58.97
2017-09-07T11:24:53.475Z,58.19
2017-09-07T11:27:21.954Z,58.10
2017-09-07T11:29:50.526Z,57.31
2017-09-07T11:32:18.898Z,56.83
2017-09-07T11:34:47.194Z,56.57
2017-09-07T11:37:15.601Z,56.22
2017-09-07T11:39:44.057Z,56.12
2017-09-07T11:42:12.706Z,57.19
2017-09-07T11:44:41.743Z,58.11
2017-09-07T11:47:10.135Z,58.51
2017-09-07T11:49:38.415Z,58.80
2017-09-07T11:52:06.894Z,59.09
2017-09-07T11:54:35.478Z,59.21
2017-09-07T11:57:03.948Z,59.02
2017-09-07T11:59:32.221Z,58.86
2017-09-07T12:02:01.758Z,57.37
2017-09-07T12:04:30.065Z,56.67
2017-09-07T12:06:58.411Z,55.92
2017-09-07T12:09:26.806Z,55.56
2017-09-07T12:11:55.106Z,55.35
2017-09-07T12:14:23.569Z,56.15
2017-09-07T12:16:51.841Z,56.56
2017-09-07T12:19:20.336Z,56.60
2017-09-07T12:21:48.625Z,56.33
2017-09-07T12:24:17.095Z,55.80
2017-09-07T12:26:45.587Z,55.37
2017-09-07T12:29:14.291Z,56.11
2017-09-07T12:31:42.894Z,56.54
2017-09-07T12:34:11.445Z,56.49
2017-09-07T12:36:39.832Z,55.55
2017-09-07T12:39:08.113Z,54.54
2017-09-07T12:41:36.391Z,53.89
2017-09-07T12:44:04.879Z,54.61
2017-09-07T12:46:33.678Z,54.96
2017-09-07T12:49:01.962Z,54.22
2017-09-07T12:51:30.443Z,53.63
2017-09-07T12:53:58.936Z,52.81
2017-09-07T12:56:27.302Z,54.50
2017-09-07T12:58:55.678Z,56.05
2017-09-07T13:01:23.961Z,56.74
2017-09-07T13:03:52.237Z,57.54
2017-09-07T13:06:20.524Z,57.75
2017-09-07T13:08:48.821Z,56.79
2017-09-07T13:11:17.306Z,55.17
2017-09-07T13:13:45.794Z,57.09
2017-09-07T13:16:14.179Z,57.80
2017-09-07T13:18:42.659Z,57.42
2017-09-07T13:21:11.152Z,56.02
2017-09-07T13:23:39.614Z,55.65
2017-09-07T13:26:07.891Z,53.82
2017-09-07T13:28:36.937Z,54.27
2017-09-07T13:31:05.539Z,52.66
2017-09-07T13:33:33.928Z,54.16
2017-09-07T13:36:02.571Z,56.23
2017-09-07T13:38:31.259Z,57.12
2017-09-07T13:40:59.846Z,57.30
2017-09-07T13:43:28.334Z,55.89
2017-09-07T13:45:57.026Z,55.22
2017-09-07T13:48:25.304Z,54.84
2017-09-07T13:50:53.579Z,56.80
2017-09-07T13:53:21.998Z,57.76
2017-09-07T13:55:50.363Z,58.12
2017-09-07T13:58:18.643Z,58.54
2017-09-07T14:00:47.327Z,58.54
2017-09-07T14:03:15.906Z,58.51
2017-09-07T14:05:44.412Z,58.64
2017-09-07T14:08:12.691Z,58.79
2017-09-07T14:10:40.994Z,58.96
2017-09-07T14:13:09.335Z,59.14
2017-09-07T14:15:37.754Z,59.22
2017-09-07T14:18:06.046Z,59.45
2017-09-07T14:20:34.386Z,59.51
2017-09-07T14:23:03.078Z,59.56
2017-09-07T14:25:31.449Z,59.74
2017-09-07T14:27:59.732Z,59.70
2017-09-07T14:30:28.019Z,59.71
2017-09-07T14:32:56.461Z,59.69
2017-09-07T14:35:25.607Z,59.25
2017-09-07T14:37:53.900Z,59.29
2017-09-07T14:40:23.504Z,58.96
2017-09-07T14:42:51.994Z,58.28
2017-09-07T14:45:20.471Z,57.12
2017-09-07T14:47:48.953Z,56.55
2017-09-07T14:50:17.339Z,56.52
2017-09-07T14:52:46.030Z,55.77
2017-09-07T14:55:14.323Z,53.95
2017-09-07T14:57:42.686Z,53.81
2017-09-07T15:00:11.290Z,54.27
2017-09-07T15:02:39.592Z,53.04
2017-09-07T15:05:07.887Z,52.67
2017-09-07T15:07:36.329Z,52.74
2017-09-07T15:10:04.622Z,52.68
2017-09-07T15:12:33.103Z,52.78
2017-09-07T15:15:01.584Z,53.79
2017-09-07T15:17:30.070Z,55.32
2017-09-07T15:19:58.346Z,56.00
2017-09-07T15:22:26.623Z,56.59
2017-09-07T15:24:54.905Z,57.25
2017-09-07T15:27:23.290Z,57.50
2017-09-07T15:29:51.575Z,57.03
2017-09-07T15:32:19.862Z,57.76
2017-09-07T15:34:48.246Z,58.52
2017-09-07T15:37:16.618Z,58.52
2017-09-07T15:39:45.204Z,58.80
2017-09-07T15:42:13.603Z,59.08
2017-09-07T15:44:42.177Z,58.97
2017-09-07T15:47:10.474Z,58.47
2017-09-07T15:49:38.771Z,58.44
2017-09-07T15:52:07.123Z,57.41
2017-09-07T15:54:35.511Z,54.65
2017-09-07T15:57:04.006Z,53.10
2017-09-07T15:59:32.285Z,51.59
2017-09-07T16:02:00.659Z,51.22
2017-09-07T16:04:29.001Z,50.45
2017-09-07T16:06:57.408Z,49.30
2017-09-07T16:09:25.684Z,48.98
2017-09-07T16:11:53.982Z,48.69
2017-09-07T16:14:22.269Z,48.74
2017-09-07T16:16:50.749Z,48.59
2017-09-07T16:19:19.171Z,49.06
2017-09-07T16:21:47.517Z,49.38
2017-09-07T16:24:15.902Z,49.40
2017-09-07T16:26:44.188Z,49.51
2017-09-07T16:29:12.558Z,49.34
2017-09-07T16:31:40.888Z,49.12
2017-09-07T16:34:09.929Z,49.32
2017-09-07T16:36:38.335Z,49.19
2017-09-07T16:39:06.743Z,49.03
2017-09-07T16:41:35.097Z,49.39
2017-09-07T16:44:03.393Z,49.09
2017-09-07T16:46:31.674Z,49.17
2017-09-07T16:48:59.972Z,49.37
2017-09-07T16:51:28.319Z,49.33
2017-09-07T16:53:56.722Z,49.58
2017-09-07T16:56:25.087Z,49.51
2017-09-07T16:58:53.378Z,49.84
2017-09-07T17:01:21.654Z,50.27
2017-09-07T17:03:49.933Z,50.21
2017-09-07T17:06:18.332Z,51.50
2017-09-07T17:08:46.795Z,51.07
2017-09-07T17:11:15.285Z,52.67
2017-09-07T17:13:43.571Z,53.29
2017-09-07T17:16:11.846Z,53.49
2017-09-07T17:18:40.154Z,53.86
2017-09-07T17:21:08.510Z,54.27
2017-09-07T17:23:36.806Z,54.67
2017-09-07T17:26:05.214Z,55.01
2017-09-07T17:28:33.511Z,55.18
2017-09-07T17:31:02.559Z,55.64
2017-09-07T17:33:30.835Z,55.89
2017-09-07T17:35:59.115Z,56.26
2017-09-07T17:38:27.490Z,56.51
2017-09-07T17:40:55.768Z,56.81
2017-09-07T17:43:24.082Z,57.00
2017-09-07T17:45:52.446Z,57.24
2017-09-07T17:48:20.817Z,57.48
2017-09-07T17:50:49.346Z,57.73
2017-09-07T17:53:17.623Z,58.02
2017-09-07T17:55:45.938Z,58.28
2017-09-07T17:58:15.074Z,58.42
2017-09-07T18:00:43.404Z,58.75
2017-09-07T18:03:11.707Z,58.82
2017-09-07T18:05:40.944Z,59.06
2017-09-07T18:08:09.349Z,59.28
2017-09-07T18:10:37.630Z,59.35
2017-09-07T18:13:05.922Z,59.43
2017-09-07T18:15:34.379Z,59.71
2017-09-07T18:18:02.658Z,59.83
2017-09-07T18:20:31.029Z,59.96
2017-09-07T18:22:59.429Z,60.12
2017-09-07T18:25:27.711Z,60.31
2017-09-07T18:27:55.994Z,60.42
2017-09-07T18:30:24.300Z,60.53
2017-09-07T18:32:52.583Z,60.61
2017-09-07T18:35:20.865Z,60.88
2017-09-07T18:37:49.158Z,61.00
2017-09-07T18:40:18.203Z,61.03
2017-09-07T18:42:46.687Z,61.18
2017-09-07T18:45:14.958Z,61.33
2017-09-07T18:47:43.254Z,61.54
2017-09-07T18:50:11.538Z,61.51
2017-09-07T18:52:39.843Z,61.78
2017-09-07T18:55:08.132Z,61.64
2017-09-07T18:57:36.474Z,61.91
2017-09-07T19:00:04.837Z,62.10
2017-09-07T19:02:33.360Z,62.18
2017-09-07T19:05:01.732Z,62.35
2017-09-07T19:07:30.121Z,62.49
2017-09-07T19:09:58.490Z,62.53
2017-09-07T19:12:26.978Z,62.64
2017-09-07T19:14:55.260Z,62.75
2017-09-07T19:17:23.686Z,62.82
2017-09-07T19:19:51.957Z,63.10
2017-09-07T19:22:20.243Z,63.07
2017-09-07T19:24:48.590Z,63.15
2017-09-07T19:27:16.882Z,63.28
2017-09-07T19:29:45.180Z,63.36
2017-09-07T19:32:13.468Z,63.51
2017-09-07T19:34:41.786Z,63.60
2017-09-07T19:37:10.837Z,63.71
2017-09-07T19:39:39.195Z,63.87
2017-09-07T19:42:07.577Z,63.84
2017-09-07T19:44:35.866Z,63.94
2017-09-07T19:47:04.246Z,64.05
2017-09-07T19:49:32.626Z,64.01
2017-09-07T19:52:00.919Z,64.05
2017-09-07T19:54:29.291Z,64.15
2017-09-07T19:56:57.573Z,64.28
2017-09-07T19:59:25.858Z,64.34
2017-09-07T20:01:54.141Z,64.30
2017-09-07T20:04:22.419Z,64.34
2017-09-07T20:06:50.726Z,64.38
2017-09-07T20:09:19.018Z,64.67
2017-09-07T20:11:47.312Z,64.74
2017-09-07T20:14:16.459Z,64.62
2017-09-07T20:16:44.767Z,64.50
2017-09-07T20:19:13.071Z,64.76
2017-09-07T20:21:41.353Z,64.82
2017-09-07T20:24:10.414Z,64.97
2017-09-07T20:26:38.790Z,65.03
2017-09-07T20:29:07.077Z,64.86
2017-09-07T20:31:35.353Z,65.06
2017-09-07T20:34:03.727Z,65.06
2017-09-07T20:36:32.113Z,65.37
2017-09-07T20:39:00.499Z,65.32
2017-09-07T20:41:28.780Z,65.39
2017-09-07T20:43:57.050Z,64.78
2017-09-07T20:46:25.328Z,64.90
2017-09-07T20:48:53.606Z,65.29
2017-09-07T20:51:21.872Z,65.60
2017-09-07T20:53:50.947Z,65.72
2017-09-07T20:56:19.238Z,66.01
2017-09-07T20:58:48.312Z,66.18
2017-09-07T21:01:16.610Z,66.24
2017-09-07T21:03:44.917Z,66.25
2017-09-07T21:06:13.207Z,66.43
2017-09-07T21:08:41.511Z,66.48
2017-09-07T21:11:09.817Z,66.61
2017-09-07T21:13:38.118Z,66.68
2017-09-07T21:16:07.204Z,66.87
2017-09-07T21:18:35.490Z,66.85
2017-09-07T21:21:03.795Z,67.01
2017-09-07T21:23:32.941Z,67.05
2017-09-07T21:26:01.315Z,66.65
2017-09-07T21:28:29.669Z,66.30
2017-09-07T21:30:58.801Z,66.13
2017-09-07T21:33:27.183Z,65.81
2017-09-07T21:35:55.497Z,65.21
2017-09-07T21:38:23.882Z,65.20
2017-09-07T21:40:52.179Z,65.37
2017-09-07T21:43:21.271Z,65.58
2017-09-07T21:45:50.386Z,65.50
2017-09-07T21:48:19.526Z,65.44
2017-09-07T21:50:47.825Z,65.41
2017-09-07T21:53:16.190Z,65.56
2017-09-07T21:55:44.571Z,65.69
2017-09-07T21:58:12.919Z,65.53
2017-09-07T22:00:41.984Z,65.58
2017-09-07T22:03:10.275Z,65.68
2017-09-07T22:05:38.567Z,65.83
2017-09-07T22:08:07.627Z,66.02
2017-09-07T22:10:35.998Z,66.07
2017-09-07T22:13:04.290Z,65.82
2017-09-07T22:15:32.593Z,66.17
2017-09-07T22:18:00.949Z,66.12
2017-09-07T22:20:29.239Z,66.28
2017-09-07T22:22:57.531Z,66.37
2017-09-07T22:25:25.897Z,66.51
2017-09-07T22:27:54.210Z,66.75
2017-09-07T22:30:23.270Z,66.64
2017-09-07T22:32:51.560Z,66.76
2017-09-07T22:35:19.846Z,66.72
2017-09-07T22:37:48.218Z,66.65
2017-09-07T22:40:16.525Z,67.06
2017-09-07T22:42:44.824Z,67.45
2017-09-07T22:45:13.981Z,67.23
2017-09-07T22:47:42.358Z,67.37
2017-09-07T22:50:10.735Z,67.58
2017-09-07T22:52:39.025Z,67.94
2017-09-07T22:55:07.310Z,68.02
2017-09-07T22:57:35.683Z,68.15
2017-09-07T23:00:03.972Z,68.32
2017-09-07T23:02:32.367Z,68.40
2017-09-07T23:05:00.668Z,68.13
2017-09-07T23:07:28.958Z,68.05
2017-09-07T23:09:57.237Z,68.17
2017-09-07T23:12:25.534Z,68.21
2017-09-07T23:14:54.601Z,68.21
2017-09-07T23:17:22.963Z,68.42
2017-09-07T23:19:51.261Z,68.64
2017-09-07T23:22:19.556Z,68.82
2017-09-07T23:24:47.840Z,68.76
2017-09-07T23:27:16.178Z,68.85
2017-09-07T23:29:44.463Z,68.70
2017-09-07T23:32:12.741Z,68.96
2017-09-07T23:34:41.329Z,68.98
2017-09-07T23:37:09.616Z,69.14
2017-09-07T23:39:37.994Z,69.22
2017-09-07T23:42:06.278Z,69.29
2017-09-07T23:44:34.558Z,69.31
2017-09-07T23:47:02.849Z,69.57
2017-09-07T23:49:31.215Z,69.57
2017-09-07T23:51:59.511Z,69.62
2017-09-07T23:54:27.823Z,69.75
2017-09-07T23:56:56.174Z,69.63
2017-09-07T23:59:24.562Z,69.87
